• Join FlightAware (Why Join?)
  • Login
  • US Flag 
12:40AM EDT


 

Airport Tracker/Info


-or-


 

Live Flight TrackerFlight Track Log ✈ N577XW ✈ 24-Jun-2013 ✈ KPBI - KTUL

Flight Track Log - Related Links

Times and Time Zones

All times are in EDT time to prevent confusion due to time zone crossing. See the N577XW flight status page for this flight to view local times or setup timezone preferences in your user account.

Time Position Orientation Groundspeed Altitude Reporting Facility
EDT Latitude Longitude Course Direction KTS MPH feet Rate Location/Type
09:45PM 26.6961 -80.0050 309° West 237 273 4,500  Level Miami Center
09:46PM 26.7392 -80.0436 321° Northwest 182 209 6,600 2,100 Climbing Miami Center
09:47PM 26.7664 -80.1303 289° West 238 274 8,700 1,980 Climbing Miami Center
09:48PM 26.8000 -80.2128 295° West 291 335 10,600 1,860 Climbing Miami Center
09:49PM 26.8275 -80.2881 292° West 298 343 12,500 1,800 Climbing Miami Center
09:50PM 27.0672 -80.6260 309° West  Level Estimated
09:50PM 26.8525 -80.3772 287° West 298 343 14,300  Level Miami Center
09:51PM 26.8708 -80.4825 281° West 305 351 16,100 1,680 Climbing Miami Center
09:52PM 26.9211 -80.5608 306° West 305 351 17,700 1,260 Climbing Miami Center
09:53PM 26.9844 -80.6164 322° Northwest 300 345 18,700 1,260 Climbing Miami Center
09:54PM 27.0517 -80.6817 319° Northwest 308 354 20,300 1,500 Climbing Miami Center
09:55PM 27.1186 -80.7514 317° Northwest 321 369 21,800 1,440 Climbing Miami Center
09:56PM 27.1856 -80.8192 318° Northwest 321 369 23,200 1,260 Climbing Miami Center
09:57PM 27.2547 -80.8844 320° Northwest 327 376 24,400 1,200 Climbing Miami Center
09:58PM 27.3319 -80.9597 319° Northwest 327 376 25,700 1,260 Climbing Miami Center
09:59PM 27.3969 -81.0297 316° Northwest 332 382 27,000 1,200 Climbing Miami Center
10:00PM 27.4619 -81.0906 320° Northwest 338 389 28,200 1,200 Climbing Miami Center
10:01PM 27.5264 -81.1681 313° West 338 389 29,500 1,320 Climbing Miami Center
10:02PM 27.5975 -81.2364 320° Northwest 338 389 30,900 1,380 Climbing Miami Center
10:03PM 27.6664 -81.3022 320° Northwest 338 389 32,300 1,320 Climbing Miami Center
10:04PM 27.7372 -81.3753 318° Northwest 324 373 33,600 1,140 Climbing Miami Center
10:05PM 27.7956 -81.4386 316° Northwest 319 367 34,600 840 Climbing Miami Center
10:07PM 27.9725 -81.6167 318° Northwest 316 364 36,700 840 Climbing Jacksonville Center
10:08PM 28.0419 -81.6864 318° Northwest 322 371 37,600 600 Climbing Jacksonville Center
10:09PM 28.1136 -81.7583 318° Northwest 327 376 38,000 180 Climbing Jacksonville Center
10:10PM 28.1853 -81.8353 317° Northwest 339 390 38,000  Level Jacksonville Center
10:11PM 28.2631 -81.9144 318° Northwest 357 411 38,100 540 Climbing Jacksonville Center
10:12PM 28.3367 -81.9942 316° Northwest 367 422 39,100 840 Climbing Jacksonville Center
10:13PM 28.3958 -82.0856 306° West 367 422 39,800 420 Climbing Jacksonville Center
10:14PM 28.4464 -82.1842 300° West 362 417 40,000 60 Climbing Jacksonville Center
10:15PM 28.5033 -82.2808 304° West 362 417 40,000  Level Jacksonville Center
10:16PM 28.5581 -82.3819 302° West 367 422 40,000  Level Jacksonville Center
10:17PM 28.6189 -82.4833 304° West 379 436 40,000  Level Jacksonville Center
10:18PM 28.6756 -82.5897 301° West 392 451 40,000  Level Jacksonville Center
10:19PM 28.7217 -82.6961 296° West 386 444 40,000  Level Jacksonville Center
10:20PM 28.7739 -82.8097 298° West 386 444 40,000  Level Jacksonville Center
10:21PM 28.8261 -82.9186 299° West 392 451 40,000  Level Jacksonville Center
10:22PM 28.8825 -83.0300 300° West 392 451 40,000  Level Jacksonville Center
10:23PM 28.9344 -83.1369 299° West 392 451 40,000  Level Jacksonville Center
10:24PM 29.0008 -83.2417 306° West 392 451 40,000  Level Jacksonville Center
10:25PM 29.0694 -83.3392 309° West 397 457 40,000  Level Jacksonville Center
10:26PM 29.1358 -83.4394 307° West 404 465 40,000  Level Jacksonville Center
10:27PM 29.1961 -83.5325 307° West 404 465 40,000  Level Jacksonville Center
10:28PM 29.2644 -83.6353 307° West 404 465 40,000  Level Jacksonville Center
10:29PM 29.3347 -83.7406 307° West 409 471 40,000  Level Jacksonville Center
10:30PM 29.4008 -83.8436 306° West 409 471 40,000  Level Jacksonville Center
10:31PM 29.4708 -83.9494 307° West 409 471 40,000  Level Jacksonville Center
10:32PM 29.5408 -84.0550 307° West 409 471 40,000  Level Jacksonville Center
10:33PM 29.6089 -84.1633 306° West 415 478 40,000  Level Jacksonville Center
10:34PM 29.6786 -84.2672 308° West 415 478 40,000  Level Jacksonville Center
10:35PM 29.7547 -84.3831 307° West 415 478 40,000  Level Jacksonville Center
10:36PM 29.8222 -84.4869 307° West 415 478 40,000  Level Jacksonville Center
10:37PM 29.8919 -84.5936 307° West 415 478 40,000  Level Jacksonville Center
10:38PM 29.9614 -84.6978 308° West 415 478 40,000  Level Jacksonville Center
10:39PM 30.0308 -84.8047 307° West 415 478 40,000  Level Jacksonville Center
10:40PM 30.0939 -84.9117 304° West 415 478 40,000  Level Jacksonville Center
10:41PM 30.1633 -85.0164 308° West 415 478 40,000  Level Jacksonville Center
10:42PM 30.2325 -85.1236 307° West 415 478 40,000  Level Jacksonville Center
10:43PM 30.2994 -85.2286 306° West 415 478 40,000  Level Jacksonville Center
10:44PM 30.3683 -85.3339 307° West 415 478 40,000  Level Jacksonville Center
10:45PM 30.4353 -85.4414 306° West 415 478 40,000  Level Jacksonville Center
10:46PM 30.4997 -85.5494 305° West 415 478 40,000  Level Jacksonville Center
10:47PM 30.5686 -85.6525 308° West 415 478 40,000  Level Jacksonville Center
10:48PM 30.6292 -85.7508 306° West 420 483 40,000  Level Jacksonville Center
10:49PM 30.6956 -85.8592 305° West 420 483 40,000  Level Jacksonville Center
10:50PM 30.7617 -85.9675 305° West 415 478 40,000  Level Jacksonville Center
10:53PM 30.9219 -86.2242 306° West 415 478 40,000  Level Atlanta Center
10:54PM 30.9886 -86.3325 306° West 410 472 40,000  Level Atlanta Center
10:55PM 31.0597 -86.4383 308° West 415 478 40,000  Level Atlanta Center
10:56PM 31.1244 -86.5444 305° West 415 478 40,000  Level Atlanta Center
10:57PM 31.1847 -86.6503 304° West 415 478 40,000  Level Atlanta Center
10:58PM 31.2475 -86.7469 307° West 410 472 40,000  Level Atlanta Center
10:59PM 31.3119 -86.8533 305° West 410 472 40,000  Level Atlanta Center
11:00PM 31.3761 -86.9600 305° West 410 472 40,000  Level Atlanta Center
11:01PM 31.4444 -87.0667 307° West 410 472 40,000  Level Atlanta Center
11:02PM 31.5086 -87.1761 305° West 410 472 40,000  Level Atlanta Center
11:03PM 31.5747 -87.2831 306° West 405 466 40,000  Level Atlanta Center
11:04PM 31.6386 -87.3903 305° West 405 466 40,000  Level Atlanta Center
11:05PM 31.7025 -87.4953 306° West 405 466 40,000  Level Atlanta Center
11:06PM 31.7683 -87.6053 305° West 405 466 40,000  Level Atlanta Center
11:07PM 31.8297 -87.7103 305° West 405 466 40,000  Level Atlanta Center
11:09PM 31.9831 -87.9694 305° West 411 473 40,000  Level Memphis Center
11:10PM 32.0456 -88.0756 305° West 406 467 40,000  Level Memphis Center
11:11PM 32.1058 -88.1844 303° West 406 467 40,000  Level Memphis Center
11:12PM 32.1703 -88.2883 306° West 401 461 40,000  Level Memphis Center
11:13PM 32.2328 -88.3975 304° West 401 461 40,000  Level Memphis Center
11:14PM 32.2928 -88.5067 303° West 401 461 40,000  Level Memphis Center
11:15PM 32.3589 -88.6111 307° West 401 461 40,000  Level Memphis Center
11:16PM 32.4208 -88.7158 305° West 396 456 40,000  Level Memphis Center
11:17PM 32.4808 -88.8206 304° West 396 456 40,000  Level Memphis Center
11:18PM 32.5489 -88.9403 304° West 396 456 40,000  Level Memphis Center
11:19PM 32.6106 -89.0453 305° West 396 456 40,000  Level Memphis Center
11:20PM 32.6703 -89.1506 304° West 396 456 40,000  Level Memphis Center
11:21PM 32.7317 -89.2583 304° West 396 456 40,000  Level Memphis Center
11:22PM 32.7931 -89.3664 304° West 396 456 40,000  Level Memphis Center
11:23PM 32.8544 -89.4744 304° West 396 456 40,000  Level Memphis Center
11:24PM 32.9136 -89.5753 305° West 391 450 40,000  Level Memphis Center
11:25PM 32.9769 -89.6861 304° West 396 456 40,000  Level Memphis Center
11:26PM 33.0275 -89.7875 301° West 396 456 40,000  Level Memphis Center
11:27PM 33.0969 -89.8961 307° West 404 465 40,000  Level Memphis Center
11:28PM 33.1536 -90.0025 302° West 403 464 40,000  Level Memphis Center
11:29PM 33.2144 -90.1114 304° West 398 458 40,000 -60 Level Memphis Center
11:30PM 33.2750 -90.2206 304° West 398 458 39,900  Descending Memphis Center
11:31PM 33.3358 -90.3297 304° West 393 452 40,000  Climbing Memphis Center
11:32PM 33.3942 -90.4394 303° West 393 452 40,000  Level Memphis Center
11:33PM 33.4567 -90.5489 304° West 393 452 40,000  Level Memphis Center
11:34PM 33.5169 -90.6586 303° West 393 452 40,000  Level Memphis Center
11:35PM 33.5794 -90.7686 304° West 393 452 40,000  Level Memphis Center
11:36PM 33.6436 -90.8911 302° West 398 458 40,000  Level Memphis Center
11:37PM 33.7014 -91.0014 302° West 398 458 40,000  Level Memphis Center
11:38PM 33.7614 -91.1067 304° West 393 452 40,000  Level Memphis Center
11:39PM 33.8108 -91.1972 303° West 393 452 40,000  Level Memphis Center
11:40PM 33.8789 -91.3206 304° West 402 463 40,000  Level Memphis Center
11:41PM 33.9406 -91.4389 302° West 396 456 40,000  Level Memphis Center
11:42PM 34.0003 -91.5472 304° West 391 450 40,000  Level Memphis Center
11:43PM 34.0553 -91.6583 301° West 402 463 40,000  Level Memphis Center
11:44PM 34.1211 -91.7647 307° West 397 457 40,000  Level Memphis Center
11:45PM 34.1761 -91.8761 301° West 391 450 40,000  Level Memphis Center
11:46PM 34.2353 -91.9853 303° West 391 450 40,000  Level Memphis Center
11:47PM 34.2964 -92.0944 304° West 396 456 40,000  Level Memphis Center
11:48PM 34.3533 -92.2036 302° West 396 456 40,000  Level Memphis Center
11:49PM 34.4100 -92.3158 301° West 396 456 40,000  Level Memphis Center
11:50PM 34.4686 -92.4253 303° West 396 456 40,000  Level Memphis Center
11:51PM 34.5253 -92.5353 302° West 396 456 40,000  Level Memphis Center
11:52PM 34.5817 -92.6475 301° West 396 456 40,000  Level Memphis Center
11:53PM 34.6400 -92.7553 303° West 391 450 40,000  Level Memphis Center
11:54PM 34.6983 -92.8681 302° West 396 456 40,000  Level Memphis Center
11:55PM 34.7567 -92.9808 302° West 396 456 40,000  Level Memphis Center
11:56PM 34.8128 -93.0914 302° West 396 456 40,000  Level Memphis Center
11:57PM 34.8686 -93.2019 302° West 391 450 40,000  Level Memphis Center
11:58PM 34.9264 -93.3153 302° West 391 450 40,000  Level Memphis Center
11:59PM 34.9864 -93.4292 303° West 391 450 40,000  Level Memphis Center
12:00AM 35.0419 -93.5400 301° West 391 450 40,000  Level Memphis Center
12:01AM 35.1017 -93.6539 303° West 391 450 40,000  Level Memphis Center
12:02AM 35.1569 -93.7628 302° West 391 450 40,000 -60 Level Memphis Center
12:03AM 35.2103 -93.8744 300° West 391 450 39,900 -780 Descending Memphis Center
12:04AM 35.2717 -93.9889 303° West 391 450 38,500 -1,800 Descending Memphis Center
12:05AM 35.3267 -94.1031 301° West 391 450 36,400 -2,100 Descending Memphis Center
12:06AM 35.3858 -94.2178 302° West 391 450 34,300 -2,100 Descending Memphis Center
12:07AM 35.4383 -94.3325 299° West 391 450 32,300 -1,980 Descending Memphis Center
12:08AM 35.4958 -94.4319 305° West 391 450 30,400 -2,100 Descending Memphis Center
12:09AM 35.5483 -94.5469 299° West 391 450 28,100 -2,400 Descending Memphis Center
12:10AM 35.6050 -94.6569 302° West 391 450 25,600 -2,580 Descending Memphis Center
12:11AM 35.6575 -94.7644 301° West 386 444 23,000 -2,580 Descending Memphis Center
12:12AM 35.7192 -94.8936 300° West 364 419 19,900 -2,520 Descending Kansas City Center
12:13AM 35.7683 -94.9975 300° West 354 407 17,400 -2,460 Descending Kansas City Center
12:14AM 35.8181 -95.0961 302° West 341 392 14,900 -2,160 Descending Kansas City Center
12:15AM 35.8647 -95.1897 302° West 326 375 13,000 -1,800 Descending Kansas City Center
12:16AM 35.9097 -95.2797 302° West 314 361 11,300 -1,860 Descending Kansas City Center
12:17AM 35.9481 -95.3664 299° West 295 339 9,700 -1,740 Descending Kansas City Center
12:18AM 35.9931 -95.4481 304° West 288 331 8,300 -1,380 Descending Kansas City Center
12:19AM 36.0372 -95.5197 307° West 283 326 7,100 -1,200 Descending Kansas City Center
12:20AM 36.0989 -95.5992 314° West 277 319 5,800 -1,140 Descending Kansas City Center
12:21AM 36.1489 -95.6675 312° West 269 310 4,700 -1,080 Descending Kansas City Center
12:22AM 36.1975 -95.7439 308° West 265 305 3,700 -1,140 Descending Kansas City Center
12:23AM 36.2414 -95.8133 308° West 251 289 2,500 -720 Descending Kansas City Center
12:24AM 36.2678 -95.8772 297° West 202 232 2,300 -600 Descending Kansas City Center
12:25AM 36.2422 -95.8961 211° Southwest 113 130 1,400 -840 Descending Kansas City Center
12:26AM 36.2150 -95.8997 186° South 86 99 800 -660 Descending Kansas City Center